Time;durP1;ratioP1;P1;durP2;ratioP2;P2;SDS_P1;SDS_P2;PMS_P1;PMS_P2;Temp;Humidity;BMP_temperature;BMP_pressure;BME280_temperature;BME280_humidity;BME280_pressure;Samples;Min_cycle;Max_cycle;Signal;HPM_P1;HPM_P2
2024/01/09 00:00:58;;;;;;;19.70;13.18;;;;;;;-3.70;100.00;103783.56;5077801;28;20025;-69
2024/01/09 00:03:23;;;;;;;20.88;13.20;;;;;;;-3.73;100.00;103786.28;5071696;28;20028;-70
2024/01/09 00:05:48;;;;;;;19.50;13.38;;;;;;;-3.81;100.00;103781.16;5072262;28;20021;-70
2024/01/09 00:08:14;;;;;;;23.58;13.85;;;;;;;-3.87;100.00;103782.19;5054879;28;20395;-70
2024/01/09 00:10:39;;;;;;;20.60;12.65;;;;;;;-3.93;100.00;103778.81;5054090;28;20028;-69
2024/01/09 00:13:05;;;;;;;17.88;11.88;;;;;;;-3.99;100.00;103779.78;5054728;28;20028;-70
2024/01/09 00:15:30;;;;;;;17.98;12.40;;;;;;;-4.08;100.00;103774.72;5054752;28;20105;-70
2024/01/09 00:17:59;;;;;;;18.88;13.20;;;;;;;-4.07;100.00;103774.69;5054640;28;20083;-70
2024/01/09 00:20:24;;;;;;;21.30;12.73;;;;;;;-4.07;100.00;103781.72;5054644;28;20032;-70
2024/01/09 00:22:51;;;;;;;18.70;12.45;;;;;;;-4.09;100.00;103773.84;5072946;28;20032;-70
2024/01/09 00:25:18;;;;;;;20.13;13.60;;;;;;;-4.15;100.00;103760.81;5054851;28;20032;-70
2024/01/09 00:27:46;;;;;;;19.25;12.93;;;;;;;-4.11;100.00;103782.66;5073085;28;20036;-70
2024/01/09 00:30:12;;;;;;;24.80;13.32;;;;;;;-4.22;100.00;103766.25;5070433;28;20033;-70
2024/01/09 00:32:37;;;;;;;23.35;13.25;;;;;;;-4.15;100.00;103779.22;5055007;28;20149;-70
2024/01/09 00:35:04;;;;;;;21.65;13.63;;;;;;;-4.17;100.00;103780.16;5075786;28;20509;-70
2024/01/09 00:37:29;;;;;;;18.65;12.27;;;;;;;-4.34;100.00;103754.19;5056970;28;20060;-68
2024/01/09 00:39:54;;;;;;;18.85;12.90;;;;;;;-4.25;100.00;103777.69;5057009;28;20072;-69
2024/01/09 00:42:20;;;;;;;21.40;12.32;;;;;;;-4.28;100.00;103777.72;5063254;28;20039;-69
2024/01/09 00:44:45;;;;;;;24.27;13.63;;;;;;;-4.35;100.00;103774.34;5077954;28;20036;-68
2024/01/09 00:47:10;;;;;;;17.85;12.07;;;;;;;-4.50;100.00;103753.66;5056796;28;20040;-69
2024/01/09 00:49:36;;;;;;;16.70;10.15;;;;;;;-4.40;100.00;103784.13;5074766;28;20058;-69
2024/01/09 00:52:02;;;;;;;15.48;11.05;;;;;;;-4.50;100.00;103780.78;5073646;28;20483;-69
2024/01/09 00:54:27;;;;;;;20.50;11.70;;;;;;;-4.58;100.00;103768.66;5056715;28;20036;-69
2024/01/09 00:56:53;;;;;;;19.33;11.07;;;;;;;-4.80;100.00;103774.31;5075053;28;20173;-69
2024/01/09 00:59:19;;;;;;;16.70;10.85;;;;;;;-4.94;100.00;103763.16;5073325;28;20040;-69
2024/01/09 01:01:51;;;;;;;18.85;11.77;;;;;;;-5.03;100.00;103765.97;5090114;28;20037;-70
2024/01/09 01:04:17;;;;;;;18.23;12.30;;;;;;;-5.04;100.00;103749.31;5057452;28;20070;-70
2024/01/09 01:06:44;;;;;;;19.38;11.52;;;;;;;-4.96;100.00;103751.84;5074070;28;20478;-70
2024/01/09 01:09:10;;;;;;;22.27;11.23;;;;;;;-4.94;100.00;103747.41;5073541;28;20043;-70
2024/01/09 01:11:36;;;;;;;17.20;10.93;;;;;;;-4.80;100.00;103755.03;5073612;28;20024;-70
2024/01/09 01:14:02;;;;;;;18.73;11.27;;;;;;;-4.72;100.00;103751.41;5090893;28;20035;-70
2024/01/09 01:16:28;;;;;;;20.75;11.40;;;;;;;-4.67;100.00;103753.06;5073851;28;20033;-70
2024/01/09 01:18:53;;;;;;;17.65;11.27;;;;;;;-4.60;100.00;103755.56;5076012;28;20052;-70
2024/01/09 01:21:19;;;;;;;18.15;11.15;;;;;;;-4.57;100.00;103752.00;5073967;28;20040;-70
2024/01/09 01:23:44;;;;;;;15.95;10.65;;;;;;;-4.50;100.00;103737.88;5056412;28;20044;-70
2024/01/09 01:26:10;;;;;;;17.25;10.82;;;;;;;-4.54;100.00;103736.19;5055054;28;20081;-70
2024/01/09 01:28:35;;;;;;;18.98;11.27;;;;;;;-4.52;100.00;103737.88;5074507;28;20025;-70
2024/01/09 01:31:02;;;;;;;20.08;10.73;;;;;;;-4.51;100.00;103733.50;5093425;28;20063;-70
2024/01/09 01:33:28;;;;;;;14.85;10.23;;;;;;;-4.52;100.00;103732.63;5071467;28;20098;-70
2024/01/09 01:35:53;;;;;;;18.67;10.95;;;;;;;-4.47;100.00;103740.41;5072051;28;20387;-70
2024/01/09 01:38:18;;;;;;;18.58;10.95;;;;;;;-4.47;100.00;103734.31;5071484;28;20024;-70
2024/01/09 01:40:44;;;;;;;18.10;10.77;;;;;;;-4.46;100.00;103739.53;5071741;28;20478;-71
2024/01/09 01:43:09;;;;;;;16.45;10.50;;;;;;;-4.52;100.00;103726.50;5070690;28;20056;-70
2024/01/09 01:45:35;;;;;;;14.52;10.02;;;;;;;-4.60;100.00;103729.31;5054179;28;20025;-70
2024/01/09 01:48:02;;;;;;;14.32;9.98;;;;;;;-4.90;100.00;103696.59;5071014;28;20036;-70
2024/01/09 01:50:28;;;;;;;16.95;9.63;;;;;;;-4.77;100.00;103724.38;5072260;28;20024;-69
2024/01/09 01:52:54;;;;;;;18.45;10.52;;;;;;;-5.18;100.00;103684.81;5054214;28;20359;-70
2024/01/09 01:55:24;;;;;;;14.77;9.40;;;;;;;-5.37;100.00;103679.88;5037320;28;20136;-70
2024/01/09 01:57:53;;;;;;;14.85;8.77;;;;;;;-5.49;100.00;103722.06;5072336;28;20035;-70
2024/01/09 02:00:20;;;;;;;11.98;8.45;;;;;;;-5.93;100.00;103689.50;5070439;28;20016;-70
2024/01/09 02:02:48;;;;;;;15.82;9.80;;;;;;;-5.81;100.00;103731.28;5071856;28;20031;-69
2024/01/09 02:05:15;;;;;;;15.27;9.50;;;;;;;-6.01;100.00;103688.75;5070451;28;20047;-71
2024/01/09 02:07:44;;;;;;;19.20;10.30;;;;;;;-5.69;100.00;103728.47;5053833;28;20534;-69
2024/01/09 02:10:10;;;;;;;17.27;10.55;;;;;;;-5.63;100.00;103731.88;5072096;28;20029;-70
2024/01/09 02:12:35;;;;;;;17.33;10.85;;;;;;;-5.59;100.00;103725.72;5070843;28;20027;-70
2024/01/09 02:15:01;;;;;;;19.10;11.98;;;;;;;-5.46;100.00;103728.13;5053595;28;20425;-70
2024/01/09 02:17:26;;;;;;;17.50;11.70;;;;;;;-5.32;100.00;103720.03;5054537;28;20545;-70
2024/01/09 02:19:51;;;;;;;21.38;11.25;;;;;;;-5.29;100.00;103719.13;5071536;28;20047;-70
2024/01/09 02:22:17;;;;;;;20.17;11.68;;;;;;;-5.29;100.00;103714.75;5071326;28;20035;-69
2024/01/09 02:24:43;;;;;;;18.63;11.13;;;;;;;-5.22;100.00;103718.13;5079894;28;20483;-70
2024/01/09 02:27:26;;;;;;;21.38;11.90;;;;;;;-5.07;100.00;103714.38;5062171;28;20024;-70
2024/01/09 02:29:53;;;;;;;17.27;11.43;;;;;;;-4.96;100.00;103720.31;5074359;28;20033;-70
2024/01/09 02:32:20;;;;;;;21.60;12.77;;;;;;;-5.01;100.00;103695.91;5056086;28;20031;-70
2024/01/09 02:34:48;;;;;;;20.38;12.18;;;;;;;-4.83;100.00;103716.59;5072311;28;20086;-70
2024/01/09 02:37:13;;;;;;;20.83;11.90;;;;;;;-4.90;100.00;103683.47;5072989;28;20392;-70
2024/01/09 02:39:40;;;;;;;19.13;11.20;;;;;;;-4.76;100.00;103710.31;5072717;28;20066;-70
2024/01/09 02:42:06;;;;;;;18.15;11.82;;;;;;;-4.74;100.00;103707.66;5055871;28;20035;-70
2024/01/09 02:44:32;;;;;;;21.60;13.35;;;;;;;-4.66;100.00;103705.75;5072407;28;20522;-70
2024/01/09 02:46:57;;;;;;;15.00;9.80;;;;;;;-4.61;100.00;103710.91;5072581;28;20157;-70
2024/01/09 02:49:23;;;;;;;14.15;9.60;;;;;;;-4.70;100.00;103713.72;5071545;28;20396;-70
2024/01/09 02:51:48;;;;;;;21.42;11.23;;;;;;;-4.74;100.00;103705.88;5072627;28;20032;-70
2024/01/09 02:54:14;;;;;;;18.90;11.57;;;;;;;-4.66;100.00;103708.41;5073068;28;20482;-69
2024/01/09 02:56:39;;;;;;;19.50;11.63;;;;;;;-4.64;100.00;103701.31;5078936;28;20025;-70
2024/01/09 02:59:05;;;;;;;23.67;13.63;;;;;;;-4.54;100.00;103697.63;5074811;28;20060;-70
2024/01/09 03:01:30;;;;;;;20.42;12.68;;;;;;;-4.50;100.00;103686.19;5072105;28;20056;-70
2024/01/09 03:03:56;;;;;;;22.45;13.82;;;;;;;-4.38;100.00;103695.56;5071830;28;20028;-69
2024/01/09 03:06:21;;;;;;;24.70;14.20;;;;;;;-4.34;100.00;103691.09;5071565;28;20032;-69
2024/01/09 03:08:48;;;;;;;23.70;14.23;;;;;;;-4.28;100.00;103694.47;5038627;28;20043;-70
2024/01/09 03:11:14;;;;;;;22.10;12.38;;;;;;;-4.28;100.00;103689.22;5073191;28;20036;-69
2024/01/09 03:13:39;;;;;;;21.88;12.80;;;;;;;-4.45;100.00;103672.94;5072011;28;20032;-69
2024/01/09 03:16:14;;;;;;;19.45;11.30;;;;;;;-4.37;100.00;103699.94;5072948;28;20025;-69
2024/01/09 03:18:41;;;;;;;17.92;10.88;;;;;;;-4.51;100.00;103699.34;5073673;28;20025;-70
2024/01/09 03:21:06;;;;;;;19.65;11.70;;;;;;;-4.58;100.00;103689.84;5073018;28;20115;-69
2024/01/09 03:23:32;;;;;;;16.60;11.57;;;;;;;-4.50;100.00;103695.84;5072211;28;20112;-70
2024/01/09 03:25:58;;;;;;;22.02;12.35;;;;;;;-4.50;100.00;103696.69;5073343;28;20035;-69
2024/01/09 03:28:24;;;;;;;19.20;12.07;;;;;;;-4.66;100.00;103683.88;5074152;28;20036;-69
2024/01/09 03:30:50;;;;;;;23.10;13.57;;;;;;;-4.42;100.00;103708.81;5071357;28;20036;-69
2024/01/09 03:33:15;;;;;;;30.90;16.65;;;;;;;-4.23;100.00;103699.66;5073039;28;20102;-69
2024/01/09 03:35:41;;;;;;;28.02;15.45;;;;;;;-4.21;100.00;103687.31;5071424;28;20042;-69
2024/01/09 03:38:06;;;;;;;27.00;15.10;;;;;;;-4.12;100.00;103691.53;5072311;28;20066;-69
2024/01/09 03:40:32;;;;;;;34.45;18.85;;;;;;;-3.91;100.00;103705.97;5080498;28;20028;-70
2024/01/09 03:42:57;;;;;;;30.15;15.82;;;;;;;-3.84;100.00;103703.19;5073469;28;20451;-70
2024/01/09 03:45:23;;;;;;;23.45;13.50;;;;;;;-3.85;100.00;103704.06;5054503;28;20125;-69
2024/01/09 03:47:49;;;;;;;19.92;12.75;;;;;;;-3.86;100.00;103701.47;5071611;28;20601;-69
2024/01/09 03:50:14;;;;;;;22.73;13.40;;;;;;;-4.15;100.00;103662.66;5071293;28;20063;-70
2024/01/09 03:52:40;;;;;;;29.13;14.60;;;;;;;-3.91;100.00;103692.81;5054076;28;20036;-70
2024/01/09 03:55:05;;;;;;;23.60;13.60;;;;;;;-3.94;100.00;103669.22;5053403;28;20482;-70
2024/01/09 03:57:31;;;;;;;25.85;14.60;;;;;;;-3.74;100.00;103687.16;5070842;28;20036;-70
2024/01/09 03:59:57;;;;;;;26.02;16.30;;;;;;;-3.69;100.00;103680.91;5055392;28;20060;-69
2024/01/09 04:02:23;;;;;;;32.22;17.70;;;;;;;-3.59;100.00;103677.16;5054027;28;20028;-69
2024/01/09 04:04:48;;;;;;;33.78;18.40;;;;;;;-3.46;100.00;103672.47;5072134;28;20046;-70
2024/01/09 04:07:13;;;;;;;34.25;19.45;;;;;;;-3.54;100.00;103645.47;5055083;28;20035;-69
2024/01/09 04:09:39;;;;;;;37.72;17.92;;;;;;;-3.27;100.00;103674.66;5076060;28;20469;-69
2024/01/09 04:12:05;;;;;;;37.10;18.88;;;;;;;-3.19;100.00;103675.31;5058409;28;20043;-70
2024/01/09 04:14:30;;;;;;;24.73;15.10;;;;;;;-3.27;100.00;103637.78;5076402;28;20037;-69
2024/01/09 04:16:56;;;;;;;29.63;13.70;;;;;;;-3.23;100.00;103660.50;5058049;28;20028;-68
2024/01/09 04:19:22;;;;;;;25.30;13.85;;;;;;;-3.31;100.00;103666.81;5074928;28;20136;-69
2024/01/09 04:21:47;;;;;;;26.60;13.63;;;;;;;-3.34;100.00;103656.38;5058164;28;20321;-69
2024/01/09 04:24:13;;;;;;;19.23;13.00;;;;;;;-3.32;100.00;103657.19;5075967;28;20032;-70
2024/01/09 04:26:38;;;;;;;22.52;13.10;;;;;;;-3.32;100.00;103651.06;5076799;28;20032;-69
2024/01/09 04:29:03;;;;;;;23.35;13.82;;;;;;;-3.26;100.00;103644.78;5053507;28;20032;-70
2024/01/09 04:31:29;;;;;;;25.67;14.35;;;;;;;-3.26;100.00;103648.25;5074987;28;20134;-69
2024/01/09 04:33:54;;;;;;;28.10;16.13;;;;;;;-3.20;100.00;103647.25;5041148;28;20068;-70
2024/01/09 04:36:19;;;;;;;25.20;14.55;;;;;;;-3.10;100.00;103643.47;5078947;28;20067;-69
2024/01/09 04:38:47;;;;;;;25.13;13.85;;;;;;;-3.13;100.00;103633.88;5065958;28;20044;-69
2024/01/09 04:41:17;;;;;;;21.75;13.27;;;;;;;-3.16;100.00;103623.41;5073985;28;20440;-70
2024/01/09 04:43:44;;;;;;;20.73;13.38;;;;;;;-3.13;100.00;103633.00;5074472;28;20031;-70
2024/01/09 04:46:10;;;;;;;27.30;15.38;;;;;;;-3.09;100.00;103632.88;5093735;28;20016;-69
2024/01/09 04:48:35;;;;;;;27.50;14.52;;;;;;;-3.03;100.00;103629.22;5101828;28;20039;-69
2024/01/09 04:51:00;;;;;;;28.83;15.02;;;;;;;-2.95;100.00;103631.66;5041188;28;20445;-70
2024/01/09 04:53:26;;;;;;;24.40;13.90;;;;;;;-3.04;100.00;103611.69;5070077;28;20044;-69
2024/01/09 04:55:51;;;;;;;24.83;13.75;;;;;;;-2.96;100.00;103628.16;5089729;28;20032;-70
2024/01/09 04:58:17;;;;;;;26.50;14.43;;;;;;;-3.03;100.00;103621.31;5084052;28;20039;-70
2024/01/09 05:00:42;;;;;;;24.63;13.25;;;;;;;-3.02;100.00;103622.19;5073780;28;20035;-71
2024/01/09 05:03:07;;;;;;;20.35;13.20;;;;;;;-3.02;100.00;103624.81;5073837;28;20063;-70
2024/01/09 05:05:33;;;;;;;24.60;13.80;;;;;;;-2.98;100.00;103610.66;5085150;28;20490;-69
2024/01/09 05:07:58;;;;;;;22.98;13.63;;;;;;;-3.02;100.00;103606.38;5082074;28;20033;-70
2024/01/09 05:10:24;;;;;;;28.60;15.32;;;;;;;-3.09;100.00;103595.16;5083773;28;20028;-69
2024/01/09 05:12:49;;;;;;;30.30;15.40;;;;;;;-2.98;100.00;103605.38;5059822;28;20158;-70
2024/01/09 05:15:15;;;;;;;25.10;14.95;;;;;;;-2.93;100.00;103608.75;5093989;28;20024;-70
2024/01/09 05:17:41;;;;;;;27.80;16.00;;;;;;;-2.89;100.00;103610.41;5096507;28;20043;-70
2024/01/09 05:20:09;;;;;;;26.85;15.45;;;;;;;-2.86;100.00;103613.81;5093918;28;20046;-70
2024/01/09 05:22:35;;;;;;;25.15;14.63;;;;;;;-2.87;100.00;103612.09;5094624;28;20028;-73
2024/01/09 05:25:03;;;;;;;30.73;16.05;;;;;;;-2.88;100.00;103602.47;5095613;28;20092;-70
2024/01/09 05:27:28;;;;;;;29.60;16.02;;;;;;;-2.87;100.00;103596.28;5093771;28;20576;-71
2024/01/09 05:29:55;;;;;;;32.08;17.63;;;;;;;-3.24;100.00;103519.22;5096401;28;20020;-70
2024/01/09 05:32:21;;;;;;;30.05;16.80;;;;;;;-2.78;100.00;103592.53;5110444;28;20063;-71
2024/01/09 05:34:47;;;;;;;30.13;17.48;;;;;;;-2.88;100.00;103581.38;5094151;28;20130;-69
2024/01/09 05:37:12;;;;;;;31.23;17.48;;;;;;;-2.78;100.00;103604.81;5076468;28;20027;-69
2024/01/09 05:39:37;;;;;;;29.35;17.23;;;;;;;-2.91;100.00;103583.25;5094539;28;20024;-69
2024/01/09 05:42:03;;;;;;;30.25;16.88;;;;;;;-3.08;100.00;103531.00;5093119;28;20487;-69
2024/01/09 05:44:28;;;;;;;27.55;16.50;;;;;;;-2.73;100.00;103584.47;5060041;28;20529;-69
2024/01/09 05:46:54;;;;;;;35.08;17.63;;;;;;;-2.70;100.00;103590.53;5054087;28;20115;-69
2024/01/09 05:49:19;;;;;;;32.10;15.75;;;;;;;-2.63;100.00;103601.75;5036885;28;20021;-70
2024/01/09 05:51:44;;;;;;;34.42;17.40;;;;;;;-2.53;100.00;103597.94;5070849;28;20037;-71
2024/01/09 05:54:10;;;;;;;31.35;16.55;;;;;;;-2.48;100.00;103601.31;5054320;28;20032;-70
2024/01/09 05:56:37;;;;;;;33.30;17.20;;;;;;;-2.41;100.00;103607.28;5073001;28;20036;-70
2024/01/09 05:59:02;;;;;;;30.52;16.42;;;;;;;-2.60;100.00;103601.66;5055223;28;20174;-70
2024/01/09 06:01:28;;;;;;;29.27;16.83;;;;;;;-2.71;100.00;103603.75;5071717;28;20033;-71
2024/01/09 06:03:53;;;;;;;29.08;17.05;;;;;;;-2.90;100.00;103574.44;5055166;28;20028;-70
2024/01/09 06:06:18;;;;;;;32.42;17.80;;;;;;;-2.87;100.00;103576.97;5054316;28;20086;-70
2024/01/09 06:08:44;;;;;;;27.02;15.50;;;;;;;-2.64;100.00;103602.69;5054817;28;20520;-72
2024/01/09 06:11:10;;;;;;;30.67;17.30;;;;;;;-2.61;100.00;103595.53;5073326;28;20024;-71
2024/01/09 06:13:35;;;;;;;27.67;16.60;;;;;;;-2.68;100.00;103595.75;5055445;28;20032;-71
2024/01/09 06:16:01;;;;;;;31.80;18.42;;;;;;;-2.81;100.00;103597.00;5072311;28;20515;-71
2024/01/09 06:18:27;;;;;;;33.00;19.35;;;;;;;-2.93;100.00;103603.50;5072798;28;20597;-71
2024/01/09 06:20:52;;;;;;;31.27;18.13;;;;;;;-2.99;100.00;103591.34;5040405;28;20131;-71
2024/01/09 06:23:18;;;;;;;33.45;19.08;;;;;;;-3.07;100.00;103586.31;5073528;28;20060;-71
2024/01/09 06:25:43;;;;;;;29.27;18.23;;;;;;;-2.96;100.00;103603.56;5073082;28;20032;-71
2024/01/09 06:28:08;;;;;;;33.25;19.00;;;;;;;-2.99;100.00;103607.16;5074017;28;20028;-70
2024/01/09 06:30:34;;;;;;;33.38;18.75;;;;;;;-2.97;100.00;103594.81;5072461;28;20024;-71
2024/01/09 06:33:00;;;;;;;38.80;19.50;;;;;;;-2.88;100.00;103585.78;5073311;28;20056;-71
2024/01/09 06:35:25;;;;;;;33.17;19.90;;;;;;;-2.86;100.00;103589.25;5072600;28;20032;-71
2024/01/09 06:37:51;;;;;;;36.90;18.88;;;;;;;-2.86;100.00;103587.47;5074103;28;20427;-71
2024/01/09 06:40:19;;;;;;;36.10;18.48;;;;;;;-3.13;100.00;103551.38;5059077;28;20036;-71
2024/01/09 06:42:48;;;;;;;34.08;18.75;;;;;;;-2.91;100.00;103591.16;5073775;28;20055;-71
2024/01/09 06:45:14;;;;;;;31.73;17.88;;;;;;;-2.91;100.00;103597.28;5056455;28;20035;-71
2024/01/09 06:47:41;;;;;;;35.05;18.15;;;;;;;-2.86;100.00;103590.09;5054431;28;20526;-71
2024/01/09 06:50:06;;;;;;;35.33;18.70;;;;;;;-2.79;100.00;103592.56;5072168;28;20032;-71
2024/01/09 06:52:32;;;;;;;40.38;20.25;;;;;;;-2.77;100.00;103590.75;5073187;28;20036;-71
2024/01/09 06:54:58;;;;;;;35.42;20.02;;;;;;;-2.75;100.00;103587.16;5074211;28;20421;-71
2024/01/09 06:57:23;;;;;;;39.88;20.67;;;;;;;-2.70;100.00;103585.25;5071486;28;20025;-70
2024/01/09 06:59:48;;;;;;;35.28;19.80;;;;;;;-2.66;100.00;103588.66;5056074;28;20032;-71
2024/01/09 07:02:14;;;;;;;36.45;19.73;;;;;;;-2.60;100.00;103585.84;5072533;28;20028;-70
2024/01/09 07:04:39;;;;;;;39.33;21.20;;;;;;;-2.53;100.00;103582.13;5055581;28;20020;-71
2024/01/09 07:07:05;;;;;;;38.17;20.40;;;;;;;-2.51;100.00;103584.72;5055653;28;20028;-71
2024/01/09 07:09:30;;;;;;;39.65;20.98;;;;;;;-2.49;100.00;103572.34;5055863;28;20086;-71
2024/01/09 07:11:55;;;;;;;37.97;20.45;;;;;;;-2.43;100.00;103583.56;5056486;28;20035;-72
2024/01/09 07:14:21;;;;;;;39.47;21.02;;;;;;;-2.41;100.00;103584.41;5072448;28;20120;-71
2024/01/09 07:16:47;;;;;;;37.35;20.20;;;;;;;-2.33;100.00;103583.28;5073517;28;20094;-70
2024/01/09 07:19:13;;;;;;;37.55;19.52;;;;;;;-2.43;100.00;103564.25;5073608;28;20024;-71
2024/01/09 07:21:38;;;;;;;35.70;20.85;;;;;;;-2.24;100.00;103575.09;5072199;28;20020;-71
2024/01/09 07:24:04;;;;;;;39.78;21.20;;;;;;;-2.18;100.00;103585.47;5072164;28;20159;-71
2024/01/09 07:26:29;;;;;;;37.03;20.80;;;;;;;-2.23;100.00;103569.78;5055642;28;20113;-71
2024/01/09 07:28:56;;;;;;;32.47;20.35;;;;;;;-2.17;100.00;103579.28;5054700;28;20512;-71
2024/01/09 07:31:21;;;;;;;38.22;19.95;;;;;;;-2.32;100.00;103550.72;5054595;28;20028;-71
2024/01/09 07:33:47;;;;;;;35.05;19.42;;;;;;;-2.13;100.00;103581.75;5070909;28;20048;-71
2024/01/09 07:36:12;;;;;;;36.95;20.80;;;;;;;-2.21;100.00;103553.91;5071943;28;20063;-70
2024/01/09 07:38:38;;;;;;;36.55;20.38;;;;;;;-2.10;100.00;103579.94;5055317;28;20032;-71
2024/01/09 07:41:03;;;;;;;37.00;21.15;;;;;;;-2.21;100.00;103561.81;5055429;28;20475;-70
2024/01/09 07:43:29;;;;;;;38.28;22.20;;;;;;;-2.27;100.00;103549.69;5072416;28;20024;-71
2024/01/09 07:45:54;;;;;;;48.83;21.08;;;;;;;-2.01;100.00;103587.56;5069912;28;20483;-71
2024/01/09 07:48:20;;;;;;;38.90;21.63;;;;;;;-2.09;100.00;103579.03;5070621;28;20029;-71
2024/01/09 07:50:46;;;;;;;40.17;22.10;;;;;;;-2.00;100.00;103595.44;5071170;28;20039;-71
2024/01/09 07:53:11;;;;;;;47.40;22.48;;;;;;;-1.99;100.00;103605.06;5054960;28;20029;-71
2024/01/09 07:55:36;;;;;;;43.55;22.20;;;;;;;-1.97;100.00;103603.25;5072783;28;20043;-71
2024/01/09 07:58:04;;;;;;;41.47;21.83;;;;;;;-1.95;100.00;103613.78;5055018;28;20036;-71
2024/01/09 08:00:32;;;;;;;43.88;24.38;;;;;;;-1.94;100.00;103612.84;5071611;28;20086;-71
2024/01/09 08:03:01;;;;;;;69.78;33.05;;;;;;;-1.94;100.00;103600.50;5071288;28;20086;-71
2024/01/09 08:05:26;;;;;;;59.63;31.60;;;;;;;-2.03;100.00;103578.84;5073060;28;20028;-71
2024/01/09 08:07:51;;;;;;;53.78;27.58;;;;;;;-1.88;100.00;103603.88;5072854;28;20078;-71
2024/01/09 08:10:17;;;;;;;45.92;25.23;;;;;;;-1.83;100.00;103601.94;5073178;28;20029;-71
2024/01/09 08:12:43;;;;;;;45.72;24.45;;;;;;;-1.84;100.00;103597.59;5054817;28;20475;-71
2024/01/09 08:15:08;;;;;;;43.33;23.05;;;;;;;-1.82;100.00;103587.81;5072314;28;20060;-71
2024/01/09 08:17:34;;;;;;;45.47;24.13;;;;;;;-1.78;100.00;103602.66;5054863;28;20491;-71
2024/01/09 08:19:59;;;;;;;49.28;23.33;;;;;;;-1.77;100.00;103604.38;5038754;28;20082;-71
2024/01/09 08:22:24;;;;;;;42.58;21.88;;;;;;;-1.75;100.00;103602.56;5055165;28;20119;-71
2024/01/09 08:24:50;;;;;;;42.33;22.35;;;;;;;-1.73;100.00;103601.59;5055017;28;20556;-71
2024/01/09 08:27:15;;;;;;;41.67;21.63;;;;;;;-1.71;100.00;103609.47;5077015;28;20032;-71
2024/01/09 08:29:43;;;;;;;42.90;21.92;;;;;;;-1.67;100.00;103605.81;5082599;28;20033;-71
2024/01/09 08:32:11;;;;;;;34.78;20.27;;;;;;;-1.63;100.00;103603.94;5062843;28;20041;-71
2024/01/09 08:34:36;;;;;;;39.65;21.90;;;;;;;-1.62;100.00;103603.88;5054829;28;20049;-71
2024/01/09 08:37:02;;;;;;;41.67;21.80;;;;;;;-1.58;100.00;103612.56;5070910;28;20503;-71
2024/01/09 08:39:27;;;;;;;49.53;23.27;;;;;;;-1.56;100.00;103608.94;5070893;28;20036;-71
2024/01/09 08:41:53;;;;;;;42.13;26.00;;;;;;;-1.51;100.00;103609.66;5070253;28;20040;-71
2024/01/09 08:44:19;;;;;;;46.90;23.75;;;;;;;-1.47;100.00;103613.91;5070295;28;20054;-72
2024/01/09 08:46:44;;;;;;;49.05;23.63;;;;;;;-1.42;100.00;103612.00;5054223;28;20485;-71
2024/01/09 08:49:11;;;;;;;42.20;23.63;;;;;;;-1.49;100.00;103596.38;5071508;28;20032;-71
2024/01/09 08:51:36;;;;;;;46.22;28.58;;;;;;;-1.35;100.00;103628.50;5070892;28;20058;-71
2024/01/09 08:54:03;;;;;;;48.83;29.52;;;;;;;-1.30;100.00;103623.91;5072038;28;20115;-71
2024/01/09 08:56:28;;;;;;;46.17;24.60;;;;;;;-1.22;100.00;103628.94;5076443;28;20032;-71
2024/01/09 08:58:53;;;;;;;48.67;25.75;;;;;;;-1.16;100.00;103623.44;5058429;28;20037;-71
2024/01/09 09:01:22;;;;;;;45.80;24.80;;;;;;;-1.30;100.00;103604.56;5074461;28;20036;-71
2024/01/09 09:03:48;;;;;;;54.17;27.45;;;;;;;-1.09;100.00;103632.91;5069950;28;20479;-71
2024/01/09 09:06:14;;;;;;;46.42;24.92;;;;;;;-1.07;100.00;103628.41;5074200;28;20120;-71
2024/01/09 09:08:39;;;;;;;37.05;20.42;;;;;;;-1.04;100.00;103628.28;5058848;28;20074;-71
2024/01/09 09:11:07;;;;;;;41.72;21.35;;;;;;;-1.01;100.00;103632.59;5076278;28;20479;-71
2024/01/09 09:13:32;;;;;;;43.28;21.90;;;;;;;-0.99;100.00;103634.28;5075166;28;20071;-71
2024/01/09 09:15:57;;;;;;;44.47;23.45;;;;;;;-0.97;100.00;103624.50;5058420;28;20060;-71
2024/01/09 09:18:23;;;;;;;45.03;21.92;;;;;;;-0.93;100.00;103632.31;5074901;28;20040;-71
2024/01/09 09:20:48;;;;;;;42.13;23.80;;;;;;;-0.91;100.00;103643.72;5074918;28;20071;-71
2024/01/09 09:23:13;;;;;;;46.80;24.67;;;;;;;-0.90;100.00;103642.78;5057936;28;20062;-71
2024/01/09 09:25:39;;;;;;;49.42;25.02;;;;;;;-1.02;100.00;103637.03;5057811;28;20029;-71
2024/01/09 09:28:04;;;;;;;51.22;23.63;;;;;;;-0.91;100.00;103647.22;5074844;28;20083;-71
2024/01/09 09:30:30;;;;;;;42.95;21.85;;;;;;;-0.92;100.00;103642.88;5073969;28;20070;-71
2024/01/09 09:32:58;;;;;;;40.10;23.10;;;;;;;-0.86;100.00;103652.34;5073675;28;20113;-71
2024/01/09 09:35:24;;;;;;;45.03;23.58;;;;;;;-0.85;100.00;103640.88;5058339;28;20116;-71
2024/01/09 09:37:49;;;;;;;46.85;24.45;;;;;;;-0.81;100.00;103638.03;5073113;28;20112;-70
2024/01/09 09:40:15;;;;;;;44.40;24.05;;;;;;;-0.79;100.00;103633.56;5073455;28;20036;-71
2024/01/09 09:42:42;;;;;;;41.83;23.33;;;;;;;-0.84;100.00;103613.50;5072809;28;20035;-71
2024/01/09 09:45:13;;;;;;;40.85;22.90;;;;;;;-0.69;100.00;103623.53;5075533;28;20074;-71
2024/01/09 09:47:39;;;;;;;45.08;24.05;;;;;;;-0.67;100.00;103621.66;5074617;28;20025;-71
2024/01/09 09:50:10;;;;;;;43.95;22.92;;;;;;;-0.60;100.00;103614.38;5074467;28;20028;-71
2024/01/09 09:52:40;;;;;;;33.28;20.92;;;;;;;-0.77;100.00;103572.69;5040474;28;20036;-71
2024/01/09 09:55:08;;;;;;;41.28;22.83;;;;;;;-0.83;100.00;103565.00;5075486;28;20029;-71
2024/01/09 09:57:34;;;;;;;41.95;22.67;;;;;;;-0.48;100.00;103608.63;5074643;28;20032;-71
2024/01/09 09:59:59;;;;;;;46.40;21.20;;;;;;;-0.65;100.00;103572.25;5073541;28;20024;-71
2024/01/09 10:02:28;;;;;;;34.33;20.20;;;;;;;-0.55;100.00;103593.91;5056574;28;20032;-71
2024/01/09 10:04:58;;;;;;;38.72;20.33;;;;;;;-0.49;100.00;103589.25;5074473;28;20017;-71
2024/01/09 10:07:24;;;;;;;45.83;21.17;;;;;;;-0.40;100.00;103590.66;5073673;28;20028;-71
2024/01/09 10:09:52;;;;;;;41.13;19.85;;;;;;;-0.37;100.00;103593.19;5074078;28;20082;-70
2024/01/09 10:12:22;;;;;;;40.72;19.58;;;;;;;-0.42;100.00;103573.16;5057153;28;20039;-71
2024/01/09 10:15:07;;;;;;;46.55;21.58;;;;;;;-0.30;100.00;103592.06;5056903;28;20037;-71
2024/01/09 10:17:36;;;;;;;42.97;20.05;;;;;;;-0.42;100.00;103567.88;5074332;28;20099;-71
2024/01/09 10:20:10;;;;;;;44.75;20.88;;;;;;;-0.32;100.00;103577.16;5073393;28;20078;-71
2024/01/09 10:22:38;;;;;;;39.92;20.58;;;;;;;-0.22;100.00;103599.69;5073064;28;20020;-70
2024/01/09 10:25:05;;;;;;;42.33;20.70;;;;;;;-0.15;100.00;103606.47;5072991;28;20028;-71
2024/01/09 10:27:32;;;;;;;41.00;21.50;;;;;;;-0.13;100.00;103604.63;5072966;28;20028;-71
2024/01/09 10:29:57;;;;;;;40.63;21.10;;;;;;;-0.30;100.00;103568.25;5074524;28;20054;-71
2024/01/09 10:32:23;;;;;;;36.92;20.13;;;;;;;-0.07;100.00;103599.06;5054952;28;20028;-70
2024/01/09 10:34:49;;;;;;;42.67;23.48;;;;;;;-0.09;100.00;103602.72;5054960;28;20048;-69
2024/01/09 10:37:18;;;;;;;36.55;20.90;;;;;;;-0.04;100.00;103587.50;5071477;28;20029;-70
2024/01/09 10:39:48;;;;;;;39.08;20.73;;;;;;;0.03;100.00;103588.13;5071614;28;20012;-70
2024/01/09 10:42:13;;;;;;;42.33;21.30;;;;;;;0.04;100.00;103588.06;5072209;28;20017;-70
2024/01/09 10:44:42;;;;;;;40.17;21.13;;;;;;;0.04;100.00;103585.41;5055409;28;20039;-70
2024/01/09 10:47:14;;;;;;;38.42;20.20;;;;;;;0.06;100.00;103583.56;5088993;28;20036;-71
2024/01/09 10:49:43;;;;;;;35.80;20.23;;;;;;;0.13;100.00;103576.22;5074567;28;20016;-71
2024/01/09 10:52:16;;;;;;;45.30;21.25;;;;;;;0.16;100.00;103560.22;5090171;28;20029;-70
2024/01/09 10:54:45;;;;;;;33.42;19.15;;;;;;;0.17;100.00;103561.97;5072805;28;20042;-71
2024/01/09 10:57:13;;;;;;;38.10;20.23;;;;;;;0.04;100.00;103544.84;5071964;28;20033;-71